createdAt,value
2023-02-19T00:01:33.228Z,55093.25
2023-02-19T00:04:07.352Z,55084.97
2023-02-19T00:06:34.182Z,55066.38
2023-02-19T00:09:00.699Z,55076.72
2023-02-19T00:11:28.307Z,55070.50
2023-02-19T00:13:55.434Z,54975.38
2023-02-19T00:16:22.958Z,54942.28
2023-02-19T00:18:49.606Z,54952.63
2023-02-19T00:21:16.116Z,54952.63
2023-02-19T00:23:42.399Z,54967.09
2023-02-19T00:26:18.089Z,54981.56
2023-02-19T00:28:45.337Z,55025.00
2023-02-19T00:31:19.209Z,55097.41
2023-02-19T00:33:46.071Z,55122.22
2023-02-19T00:36:12.601Z,55204.94
2023-02-19T00:38:39.710Z,55219.41
2023-02-19T00:41:18.958Z,55308.38
2023-02-19T00:43:45.229Z,55341.47
2023-02-19T00:46:11.696Z,55444.88
2023-02-19T00:48:38.834Z,55515.22
2023-02-19T00:51:05.183Z,55564.84
2023-02-19T00:53:31.462Z,55633.09
2023-02-19T00:55:57.764Z,55701.38
2023-02-19T00:58:24.099Z,55751.03
2023-02-19T01:00:50.418Z,55740.69
2023-02-19T01:03:16.710Z,55817.22
2023-02-19T01:05:42.981Z,55875.13
2023-02-19T01:08:09.263Z,55829.63
2023-02-19T01:10:35.561Z,55854.44
2023-02-19T01:13:01.844Z,55788.25
2023-02-19T01:15:28.126Z,55833.75
2023-02-19T01:17:54.502Z,55819.28
2023-02-19T01:20:20.828Z,55889.63
2023-02-19T01:22:47.136Z,55796.53
2023-02-19T01:25:13.464Z,55734.47
2023-02-19T01:27:39.758Z,55722.06
2023-02-19T01:30:06.309Z,55657.94
2023-02-19T01:32:32.638Z,55635.19
2023-02-19T01:34:58.974Z,55622.78
2023-02-19T01:37:25.267Z,55643.47
2023-02-19T01:39:51.643Z,55564.84
2023-02-19T01:42:17.944Z,55711.72
2023-02-19T01:44:47.218Z,55833.75
2023-02-19T01:47:17.075Z,56094.44
2023-02-19T01:49:50.488Z,56257.88
2023-02-19T01:52:16.742Z,56444.06
2023-02-19T01:54:43.183Z,56464.75
2023-02-19T01:57:11.642Z,56450.28
2023-02-19T01:59:38.241Z,56353.03
2023-02-19T02:02:04.630Z,56394.41
2023-02-19T02:04:31.258Z,56357.16
2023-02-19T02:06:57.628Z,56371.66
2023-02-19T02:09:44.293Z,56419.25
2023-02-19T02:12:10.910Z,56342.69
2023-02-19T02:14:38.045Z,56317.88
2023-02-19T02:17:08.948Z,56243.38
2023-02-19T02:19:47.468Z,56102.69
2023-02-19T02:22:16.371Z,56034.44
2023-02-19T02:24:48.865Z,56055.13
2023-02-19T02:27:34.145Z,56235.09
2023-02-19T02:30:04.214Z,56439.94
2023-02-19T02:32:35.680Z,56408.91
2023-02-19T02:35:06.250Z,56518.56
2023-02-19T02:37:33.501Z,56607.53
2023-02-19T02:39:59.829Z,56673.72
2023-02-19T02:42:29.217Z,56628.22
2023-02-19T02:45:15.379Z,56601.31
2023-02-19T02:47:48.608Z,56617.88
2023-02-19T02:50:19.556Z,56586.81
2023-02-19T02:53:04.637Z,56346.81
2023-02-19T02:55:31.479Z,56098.56
2023-02-19T02:57:57.806Z,55920.66
2023-02-19T03:00:24.236Z,55866.88
2023-02-19T03:02:50.564Z,55790.31
2023-02-19T03:05:36.806Z,55868.94
2023-02-19T03:08:03.059Z,55918.59
2023-02-19T03:10:31.807Z,55858.59
2023-02-19T03:13:16.975Z,55713.78
2023-02-19T03:16:19.992Z,55653.78
2023-02-19T03:19:05.481Z,55544.16
2023-02-19T03:21:31.810Z,55585.53
2023-02-19T03:24:16.795Z,55566.91
2023-02-19T03:26:43.088Z,55451.09
2023-02-19T03:29:26.126Z,55362.13
2023-02-19T03:31:54.494Z,55320.78
2023-02-19T03:34:22.385Z,55202.88
2023-02-19T03:36:51.145Z,55084.97
2023-02-19T03:39:17.849Z,54977.44
2023-02-19T03:42:01.671Z,54983.63
2023-02-19T03:44:36.193Z,54946.41
2023-02-19T03:47:07.879Z,54911.25
2023-02-19T03:49:37.301Z,54880.22
2023-02-19T03:52:09.583Z,55010.53
2023-02-19T03:54:38.402Z,55095.31
2023-02-19T03:57:24.943Z,55169.78
2023-02-19T03:59:55.907Z,55105.66
2023-02-19T04:02:41.051Z,55087.06
2023-02-19T04:05:07.410Z,55128.41
2023-02-19T04:07:35.688Z,55144.97
2023-02-19T04:10:01.989Z,55124.28
2023-02-19T04:12:28.315Z,55076.72
2023-02-19T04:15:00.826Z,55066.38
2023-02-19T04:17:32.330Z,55076.72
2023-02-19T04:19:58.703Z,54991.91
2023-02-19T04:22:25.034Z,55039.47
2023-02-19T04:24:52.604Z,55089.13
2023-02-19T04:27:19.184Z,55109.81
2023-02-19T04:29:45.467Z,55060.16
2023-02-19T04:32:12.311Z,55018.81
2023-02-19T04:34:38.784Z,54989.84
2023-02-19T04:37:05.297Z,55016.72
2023-02-19T04:39:31.620Z,55022.94
2023-02-19T04:41:57.899Z,55070.50
2023-02-19T04:44:24.263Z,55080.84
2023-02-19T04:46:50.705Z,55122.22
2023-02-19T04:49:17.000Z,55176.00
2023-02-19T04:51:43.290Z,55192.53
2023-02-19T04:54:09.746Z,55221.50
2023-02-19T04:56:36.013Z,55374.56
2023-02-19T04:59:02.410Z,55389.03
2023-02-19T05:01:28.776Z,55420.06
2023-02-19T05:03:55.077Z,55438.66
2023-02-19T05:06:21.400Z,55418.00
2023-02-19T05:08:47.779Z,55432.47
2023-02-19T05:11:14.145Z,55459.34
2023-02-19T05:13:40.629Z,55413.84
2023-02-19T05:16:13.709Z,55422.13
2023-02-19T05:18:40.325Z,55349.72
2023-02-19T05:21:06.703Z,55233.91
2023-02-19T05:23:33.031Z,55240.09
2023-02-19T05:25:59.365Z,55217.34
2023-02-19T05:28:28.970Z,55196.66
2023-02-19T05:30:55.776Z,55217.34
2023-02-19T05:33:22.944Z,55244.25
2023-02-19T05:35:50.098Z,55231.84
2023-02-19T05:38:16.664Z,55140.81
2023-02-19T05:40:43.081Z,55064.31
2023-02-19T05:43:09.364Z,55126.34
2023-02-19T05:45:35.745Z,55076.72
2023-02-19T05:48:02.493Z,55138.75
2023-02-19T05:50:29.170Z,55120.16
2023-02-19T05:52:55.549Z,55113.94
2023-02-19T05:55:21.918Z,55157.38
2023-02-19T05:57:48.305Z,55167.72
2023-02-19T06:00:18.730Z,55351.78
2023-02-19T06:02:45.041Z,55449.00
2023-02-19T06:05:11.422Z,55585.53
2023-02-19T06:07:39.467Z,55736.53
2023-02-19T06:10:06.415Z,55837.91
2023-02-19T06:12:32.844Z,56108.91
2023-02-19T06:14:59.123Z,56193.72
2023-02-19T06:17:25.407Z,56208.22
2023-02-19T06:19:51.854Z,56342.69
2023-02-19T06:22:18.162Z,56423.38
2023-02-19T06:24:44.515Z,56582.69
2023-02-19T06:27:10.917Z,56710.97
2023-02-19T06:29:40.166Z,56760.63
2023-02-19T06:32:06.900Z,56853.75
2023-02-19T06:34:33.612Z,56837.19
2023-02-19T06:37:00.112Z,56917.88
2023-02-19T06:39:26.807Z,56928.25
2023-02-19T06:41:56.515Z,56934.44
2023-02-19T06:44:22.940Z,56961.34
2023-02-19T06:46:49.273Z,56891.00
2023-02-19T06:49:15.611Z,56719.25
2023-02-19T06:51:42.060Z,56578.56
2023-02-19T06:54:08.393Z,56475.09
2023-02-19T06:56:35.438Z,56348.91
2023-02-19T06:59:03.285Z,56313.72
2023-02-19T07:01:30.277Z,56379.94
2023-02-19T07:03:56.666Z,56435.78
2023-02-19T07:06:23.410Z,56444.06
2023-02-19T07:08:50.027Z,56456.47
2023-02-19T07:11:16.918Z,56477.16
2023-02-19T07:13:43.248Z,56537.16
2023-02-19T07:16:09.855Z,56357.16
2023-02-19T07:18:36.491Z,56367.50
2023-02-19T07:21:06.545Z,56346.81
2023-02-19T07:23:32.883Z,56237.19
2023-02-19T07:25:59.311Z,56230.97
2023-02-19T07:28:25.685Z,56251.66
2023-02-19T07:30:52.168Z,56177.19
2023-02-19T07:33:18.616Z,56193.72
2023-02-19T07:35:48.703Z,55957.88
2023-02-19T07:38:16.092Z,55959.97
2023-02-19T07:40:42.418Z,55633.09
2023-02-19T07:43:08.755Z,55579.34
2023-02-19T07:45:35.097Z,55436.59
2023-02-19T07:48:01.420Z,55229.75
2023-02-19T07:50:27.770Z,55064.31
2023-02-19T07:52:54.193Z,55047.75
2023-02-19T07:55:20.559Z,54971.22
2023-02-19T07:57:46.931Z,54917.47
2023-02-19T08:00:13.517Z,54886.44
2023-02-19T08:02:58.819Z,54843.00
2023-02-19T08:05:25.416Z,54857.47
2023-02-19T08:07:51.708Z,54770.63
2023-02-19T08:10:36.697Z,54704.44
2023-02-19T08:13:21.771Z,54598.97
2023-02-19T08:15:51.208Z,54487.31
2023-02-19T08:18:18.348Z,54460.41
2023-02-19T08:20:44.721Z,54336.34
2023-02-19T08:23:11.264Z,54117.16
2023-02-19T08:25:37.835Z,53968.28
2023-02-19T08:28:04.326Z,53964.16
2023-02-19T08:30:31.201Z,53908.31
2023-02-19T08:32:58.297Z,53823.53
2023-02-19T08:35:24.778Z,53807.00
2023-02-19T08:37:51.087Z,53751.19
2023-02-19T08:40:17.389Z,53703.63
2023-02-19T08:42:43.996Z,53608.50
2023-02-19T08:45:10.448Z,53612.66
2023-02-19T08:47:36.810Z,53625.06
2023-02-19T08:50:04.944Z,53577.50
2023-02-19T08:52:31.501Z,53525.81
2023-02-19T08:54:58.180Z,53523.75
2023-02-19T08:57:24.956Z,53583.72
2023-02-19T08:59:51.312Z,53573.38
2023-02-19T09:02:17.632Z,53600.25
2023-02-19T09:04:43.942Z,53600.25
2023-02-19T09:07:11.061Z,53587.84
2023-02-19T09:09:38.008Z,53503.06
2023-02-19T09:12:05.064Z,53501.00
2023-02-19T09:14:32.003Z,53511.34
2023-02-19T09:16:58.314Z,53403.84
2023-02-19T09:19:24.835Z,53383.16
2023-02-19T09:21:51.173Z,53401.78
2023-02-19T09:24:17.499Z,53391.44
2023-02-19T09:26:43.795Z,53451.38
2023-02-19T09:29:10.130Z,53538.22
2023-02-19T09:31:36.530Z,53633.31
2023-02-19T09:34:02.862Z,53685.00
2023-02-19T09:36:29.204Z,53726.38
2023-02-19T09:38:55.495Z,53755.31
2023-02-19T09:41:27.476Z,53736.69
2023-02-19T09:43:53.785Z,53691.22
2023-02-19T09:46:23.260Z,53654.00
2023-02-19T09:48:49.545Z,53620.91
2023-02-19T09:51:16.151Z,53571.31
2023-02-19T09:53:43.623Z,53525.81
2023-02-19T09:56:09.899Z,53395.56
2023-02-19T09:58:38.670Z,53335.63
2023-02-19T10:01:05.106Z,53292.19
2023-02-19T10:03:39.017Z,53226.03
2023-02-19T10:06:06.917Z,53277.72
2023-02-19T10:08:34.993Z,53259.13
2023-02-19T10:11:01.890Z,53203.31
2023-02-19T10:13:32.469Z,53176.44
2023-02-19T10:15:59.188Z,53159.91
2023-02-19T10:18:28.255Z,53141.28
2023-02-19T10:20:54.775Z,53149.56
2023-02-19T10:23:21.274Z,53205.38
2023-02-19T10:25:49.575Z,53170.22
2023-02-19T10:28:18.079Z,53184.69
2023-02-19T10:30:44.455Z,53151.63
2023-02-19T10:33:12.964Z,53153.69
2023-02-19T10:35:51.270Z,53145.44
2023-02-19T10:38:17.929Z,53137.16
2023-02-19T10:40:44.861Z,53147.50
2023-02-19T10:43:13.995Z,53135.09
2023-02-19T10:45:50.292Z,53083.41
2023-02-19T10:48:30.538Z,53064.81
2023-02-19T10:50:59.897Z,53044.13
2023-02-19T10:53:39.620Z,53009.00
2023-02-19T10:56:26.227Z,52984.19
2023-02-19T10:58:52.778Z,53009.00
2023-02-19T11:01:20.220Z,52977.97
2023-02-19T11:03:50.482Z,52998.66
2023-02-19T11:06:17.980Z,52988.31
2023-02-19T11:08:48.856Z,53017.25
2023-02-19T11:11:27.644Z,53033.78
2023-02-19T11:13:54.860Z,53019.31
2023-02-19T11:16:21.229Z,53042.06
2023-02-19T11:18:54.818Z,53025.53
2023-02-19T11:21:28.538Z,53013.13
2023-02-19T11:23:54.829Z,53066.88
2023-02-19T11:26:22.469Z,53017.25
2023-02-19T11:28:55.705Z,53042.06
2023-02-19T11:31:26.152Z,53058.59
2023-02-19T11:33:56.967Z,53073.06
2023-02-19T11:36:23.236Z,53116.47
2023-02-19T11:38:49.557Z,53151.63
2023-02-19T11:41:30.288Z,53141.28
2023-02-19T11:44:06.435Z,53122.69
2023-02-19T11:46:36.561Z,53108.22
2023-02-19T11:49:02.886Z,53137.16
2023-02-19T11:51:31.453Z,53095.81
2023-02-19T11:54:18.050Z,53122.69
2023-02-19T11:56:45.173Z,53137.16
2023-02-19T11:59:30.466Z,53128.88
2023-02-19T12:02:12.345Z,53112.34
2023-02-19T12:04:41.916Z,53120.63
2023-02-19T12:07:08.252Z,53091.69
2023-02-19T12:09:40.788Z,53089.59
2023-02-19T12:12:10.237Z,53058.59
2023-02-19T12:14:49.893Z,53075.13
2023-02-19T12:17:30.302Z,53099.94
2023-02-19T12:20:13.225Z,53145.44
2023-02-19T12:22:44.820Z,53133.03
2023-02-19T12:25:23.728Z,53219.84
2023-02-19T12:27:55.944Z,53226.03
2023-02-19T12:30:22.218Z,53244.66
2023-02-19T12:32:54.599Z,53228.13
2023-02-19T12:35:28.891Z,53240.53
2023-02-19T12:38:04.600Z,53265.31
2023-02-19T12:40:49.778Z,53261.19
2023-02-19T12:43:19.893Z,53230.19
2023-02-19T12:45:53.640Z,53190.91
2023-02-19T12:48:36.450Z,53201.25
2023-02-19T12:51:04.897Z,53157.81
2023-02-19T12:53:33.107Z,53164.03
2023-02-19T12:55:59.696Z,53168.16
2023-02-19T12:58:30.839Z,53089.59
2023-02-19T13:00:59.582Z,53085.47
2023-02-19T13:03:32.695Z,53102.00
2023-02-19T13:06:04.384Z,53075.13
2023-02-19T13:08:34.261Z,53110.28
2023-02-19T13:11:01.845Z,53106.16
2023-02-19T13:13:30.819Z,53066.88
2023-02-19T13:15:59.207Z,53099.94
2023-02-19T13:18:27.500Z,53054.47
2023-02-19T13:20:55.320Z,53097.88
2023-02-19T13:23:46.336Z,53066.88
2023-02-19T13:26:27.333Z,53056.53
2023-02-19T13:29:26.163Z,53077.22
2023-02-19T13:32:09.892Z,53060.66
2023-02-19T13:34:59.062Z,53087.53
2023-02-19T13:37:25.403Z,53083.41
2023-02-19T13:39:52.669Z,53056.53
2023-02-19T13:42:26.329Z,53048.25
2023-02-19T13:44:57.719Z,53089.59
2023-02-19T13:47:44.031Z,53081.34
2023-02-19T13:50:12.936Z,53081.34
2023-02-19T13:52:39.533Z,53093.75
2023-02-19T13:55:24.680Z,53089.59
2023-02-19T13:57:51.012Z,53081.34
2023-02-19T14:00:49.029Z,53091.69
2023-02-19T14:03:34.298Z,53106.16
2023-02-19T14:06:01.785Z,53112.34
2023-02-19T14:08:46.901Z,53114.41
2023-02-19T14:11:14.366Z,53108.22
2023-02-19T14:13:49.965Z,53095.81
2023-02-19T14:16:35.304Z,53091.69
2023-02-19T14:19:01.737Z,53122.69
2023-02-19T14:21:35.366Z,53091.69
2023-02-19T14:24:01.729Z,53120.63
2023-02-19T14:26:28.063Z,53075.13
2023-02-19T14:28:54.338Z,53102.00
2023-02-19T14:31:39.046Z,53083.41
2023-02-19T14:34:07.154Z,53095.81
2023-02-19T14:36:33.412Z,53104.06
2023-02-19T14:38:59.670Z,53064.81
2023-02-19T14:41:26.013Z,53095.81
2023-02-19T14:43:52.828Z,53091.69
2023-02-19T14:46:22.316Z,53087.53
2023-02-19T14:48:49.431Z,53085.47
2023-02-19T14:51:21.981Z,53081.34
2023-02-19T14:53:48.315Z,53099.94
2023-02-19T14:56:22.059Z,53106.16
2023-02-19T14:59:04.718Z,53118.56
2023-02-19T15:01:31.054Z,53087.53
2023-02-19T15:03:57.381Z,53106.16
2023-02-19T15:06:24.478Z,53093.75
2023-02-19T15:08:55.052Z,53075.13
2023-02-19T15:11:22.480Z,53087.53
2023-02-19T15:14:02.470Z,53083.41
2023-02-19T15:16:28.961Z,53085.47
2023-02-19T15:18:55.348Z,53091.69
2023-02-19T15:21:25.600Z,53099.94
2023-02-19T15:23:54.092Z,53087.53
2023-02-19T15:26:21.469Z,53073.06
2023-02-19T15:28:47.979Z,53095.81
2023-02-19T15:31:15.667Z,53097.88
2023-02-19T15:33:49.210Z,53116.47
2023-02-19T15:36:15.548Z,53091.69
2023-02-19T15:38:41.826Z,53099.94
2023-02-19T15:41:14.361Z,53120.63
2023-02-19T15:43:45.142Z,53085.47
2023-02-19T15:46:16.755Z,53087.53
2023-02-19T15:48:44.834Z,53118.56
2023-02-19T15:51:13.700Z,53083.41
2023-02-19T15:53:50.741Z,53077.22
2023-02-19T15:56:28.010Z,53097.88
2023-02-19T15:58:56.938Z,53062.75
2023-02-19T16:01:30.352Z,53085.47
2023-02-19T16:03:57.026Z,53099.94
2023-02-19T16:06:23.804Z,53104.06
2023-02-19T16:09:03.461Z,53081.34
2023-02-19T16:11:34.395Z,53093.75
2023-02-19T16:14:18.279Z,53091.69
2023-02-19T16:16:44.784Z,53087.53
2023-02-19T16:19:11.148Z,53120.63
2023-02-19T16:21:37.428Z,53093.75
2023-02-19T16:24:04.954Z,53122.69
2023-02-19T16:26:38.726Z,53071.00
2023-02-19T16:29:05.114Z,53087.53
2023-02-19T16:31:31.498Z,53122.69
2023-02-19T16:33:58.881Z,53095.81
2023-02-19T16:36:41.543Z,53087.53
2023-02-19T16:39:07.844Z,53104.06
2023-02-19T16:41:34.447Z,53104.06
2023-02-19T16:44:06.508Z,53102.00
2023-02-19T16:46:32.811Z,53116.47
2023-02-19T16:48:59.124Z,53095.81
2023-02-19T16:51:26.102Z,53114.41
2023-02-19T16:53:52.404Z,53116.47
2023-02-19T16:56:21.139Z,53108.22
2023-02-19T16:58:47.460Z,53114.41
2023-02-19T17:01:14.244Z,53130.94
2023-02-19T17:03:40.802Z,53095.81
2023-02-19T17:06:07.233Z,53097.88
2023-02-19T17:08:34.005Z,53116.47
2023-02-19T17:11:02.180Z,53141.28
2023-02-19T17:13:29.367Z,53128.88
2023-02-19T17:15:55.994Z,53104.06
2023-02-19T17:18:22.624Z,53130.94
2023-02-19T17:20:57.051Z,53133.03
2023-02-19T17:23:24.516Z,53130.94
2023-02-19T17:25:50.930Z,53128.88
2023-02-19T17:28:17.270Z,53133.03
2023-02-19T17:30:43.741Z,53170.22
2023-02-19T17:33:10.052Z,53135.09
2023-02-19T17:35:36.506Z,53155.75
2023-02-19T17:38:09.344Z,53161.97
2023-02-19T17:40:36.067Z,53188.84
2023-02-19T17:43:02.585Z,53149.56
2023-02-19T17:45:28.920Z,53149.56
2023-02-19T17:47:55.366Z,53133.03
2023-02-19T17:50:26.046Z,53159.91
2023-02-19T17:52:52.510Z,53166.09
2023-02-19T17:55:19.006Z,53168.16
2023-02-19T17:57:45.694Z,53217.78
2023-02-19T18:00:16.422Z,53205.38
2023-02-19T18:02:42.763Z,53259.13
2023-02-19T18:05:09.241Z,53302.53
2023-02-19T18:07:36.046Z,53312.88
2023-02-19T18:10:02.975Z,53356.28
2023-02-19T18:12:29.264Z,53391.44
2023-02-19T18:14:56.549Z,53391.44
2023-02-19T18:17:23.396Z,53401.78
2023-02-19T18:19:49.977Z,53432.78
2023-02-19T18:22:16.320Z,53501.00
2023-02-19T18:24:46.750Z,53482.41
2023-02-19T18:27:13.347Z,53492.75
2023-02-19T18:29:39.629Z,53498.94
2023-02-19T18:32:05.962Z,53523.75
2023-02-19T18:34:32.381Z,53498.94
2023-02-19T18:36:58.714Z,53544.44
2023-02-19T18:39:25.066Z,53521.69
2023-02-19T18:41:51.563Z,53544.44
2023-02-19T18:44:18.976Z,53563.03
2023-02-19T18:46:45.411Z,53552.69
2023-02-19T18:49:11.848Z,53575.44
2023-02-19T18:51:38.120Z,53550.63
2023-02-19T18:54:04.442Z,53558.91
2023-02-19T18:56:31.099Z,53538.22
2023-02-19T18:58:59.884Z,53501.00
2023-02-19T19:01:26.203Z,53536.16
2023-02-19T19:03:52.601Z,53532.03
2023-02-19T19:06:19.004Z,53517.53
2023-02-19T19:08:45.277Z,53521.69
2023-02-19T19:11:11.903Z,53525.81
2023-02-19T19:13:38.373Z,53529.94
2023-02-19T19:16:04.841Z,53548.56
2023-02-19T19:18:31.643Z,53567.16
2023-02-19T19:21:03.040Z,53577.50
2023-02-19T19:23:29.354Z,53548.56
2023-02-19T19:25:55.681Z,53556.81
2023-02-19T19:28:22.086Z,53585.78
2023-02-19T19:30:48.513Z,53591.97
2023-02-19T19:33:14.924Z,53594.03
2023-02-19T19:35:41.203Z,53596.13
2023-02-19T19:38:07.497Z,53552.69
2023-02-19T19:40:33.924Z,53581.63
2023-02-19T19:43:00.202Z,53540.28
2023-02-19T19:45:26.518Z,53532.03
2023-02-19T19:47:53.044Z,53492.75
2023-02-19T19:50:19.441Z,53507.22
2023-02-19T19:52:45.704Z,53484.47
2023-02-19T19:55:11.992Z,53480.34
2023-02-19T19:57:40.782Z,53517.53
2023-02-19T20:00:07.619Z,53494.81
2023-02-19T20:02:33.939Z,53554.75
2023-02-19T20:05:01.094Z,53552.69
2023-02-19T20:07:28.334Z,53548.56
2023-02-19T20:09:54.866Z,53556.81
2023-02-19T20:12:21.176Z,53554.75
2023-02-19T20:14:47.573Z,53505.16
2023-02-19T20:17:14.342Z,53519.63
2023-02-19T20:19:40.775Z,53472.06
2023-02-19T20:22:07.060Z,53478.28
2023-02-19T20:24:33.371Z,53474.13
2023-02-19T20:27:00.421Z,53455.53
2023-02-19T20:29:28.632Z,53478.28
2023-02-19T20:31:55.287Z,53443.13
2023-02-19T20:34:22.445Z,53461.72
2023-02-19T20:36:48.861Z,53428.66
2023-02-19T20:39:19.069Z,53432.78
2023-02-19T20:41:46.410Z,53407.97
2023-02-19T20:44:12.839Z,53434.84
2023-02-19T20:46:46.066Z,53434.84
2023-02-19T20:49:13.086Z,53420.38
2023-02-19T20:51:46.444Z,53422.44
2023-02-19T20:54:13.017Z,53434.84
2023-02-19T20:56:49.628Z,53414.19
2023-02-19T20:59:16.436Z,53403.84
2023-02-19T21:01:42.779Z,53410.03
2023-02-19T21:04:09.296Z,53418.31
2023-02-19T21:06:35.619Z,53418.31
2023-02-19T21:09:02.128Z,53422.44
2023-02-19T21:11:28.414Z,53389.38
2023-02-19T21:13:58.878Z,53416.25
2023-02-19T21:16:29.133Z,53426.59
2023-02-19T21:18:55.677Z,53364.56
2023-02-19T21:21:25.272Z,53376.97
2023-02-19T21:23:52.334Z,53360.44
2023-02-19T21:26:19.411Z,53387.31
2023-02-19T21:28:45.806Z,53360.44
2023-02-19T21:31:12.291Z,53329.41
2023-02-19T21:33:38.670Z,53304.59
2023-02-19T21:36:05.253Z,53279.81
2023-02-19T21:38:32.728Z,53269.47
2023-02-19T21:40:59.101Z,53302.53
2023-02-19T21:43:25.458Z,53306.66
2023-02-19T21:45:51.813Z,53288.06
2023-02-19T21:48:18.143Z,53337.69
2023-02-19T21:50:45.662Z,53323.22
2023-02-19T21:53:12.752Z,53331.47
2023-02-19T21:55:42.912Z,53310.81
2023-02-19T21:58:16.283Z,53317.00
2023-02-19T22:00:42.659Z,53327.34
2023-02-19T22:03:10.960Z,53360.44
2023-02-19T22:05:37.375Z,53341.81
2023-02-19T22:08:03.795Z,53374.91
2023-02-19T22:10:30.102Z,53333.56
2023-02-19T22:12:56.601Z,53348.03
2023-02-19T22:15:22.889Z,53343.88
2023-02-19T22:17:49.239Z,53358.34
2023-02-19T22:20:17.190Z,53348.03
2023-02-19T22:22:43.582Z,53356.28
2023-02-19T22:25:09.968Z,53352.16
2023-02-19T22:27:36.304Z,53356.28
2023-02-19T22:30:02.710Z,53354.22
2023-02-19T22:32:29.132Z,53352.16
2023-02-19T22:34:55.486Z,53356.28
2023-02-19T22:37:21.771Z,53350.09
2023-02-19T22:39:48.065Z,53387.31
2023-02-19T22:42:14.479Z,53354.22
2023-02-19T22:44:42.498Z,53317.00
2023-02-19T22:47:08.778Z,53306.66
2023-02-19T22:49:37.383Z,53300.47
2023-02-19T22:52:04.910Z,53321.16
2023-02-19T22:54:31.400Z,53333.56
2023-02-19T22:56:57.743Z,53329.41
2023-02-19T22:59:24.075Z,53339.75
2023-02-19T23:01:50.542Z,53286.00
2023-02-19T23:04:16.953Z,53300.47
2023-02-19T23:06:45.176Z,53319.06
2023-02-19T23:09:16.118Z,53312.88
2023-02-19T23:11:42.435Z,53290.13
2023-02-19T23:14:08.731Z,53321.16
2023-02-19T23:16:38.233Z,53323.22
2023-02-19T23:19:05.026Z,53327.34
2023-02-19T23:21:31.730Z,53337.69
2023-02-19T23:23:58.051Z,53317.00
2023-02-19T23:26:24.398Z,53304.59
2023-02-19T23:28:50.798Z,53333.56
2023-02-19T23:31:17.468Z,53360.44
2023-02-19T23:33:43.959Z,53364.56
2023-02-19T23:36:10.635Z,53302.53
2023-02-19T23:38:37.126Z,53356.28
2023-02-19T23:41:03.608Z,53345.94
2023-02-19T23:43:29.940Z,53348.03
2023-02-19T23:45:56.342Z,53341.81
2023-02-19T23:48:22.650Z,53348.03
2023-02-19T23:50:48.954Z,53350.09
2023-02-19T23:53:15.284Z,53321.16
2023-02-19T23:55:41.592Z,53354.22
2023-02-19T23:58:07.913Z,53327.34
